Time;durP1;ratioP1;P1;durP2;ratioP2;P2;SDS_P1;SDS_P2;PMS_P1;PMS_P2;Temp;Humidity;BMP_temperature;BMP_pressure;BME280_temperature;BME280_humidity;BME280_pressure;Samples;Min_cycle;Max_cycle;Signal;HPM_P1;HPM_P2
2022/05/01 00:01:35;;;;;;;14.95;8.80;;;9.40;99.90;;;;;;5013801;28;20056;-32
2022/05/01 00:04:01;;;;;;;14.70;10.07;;;9.40;99.90;;;;;;5008420;28;20544;-34
2022/05/01 00:06:27;;;;;;;13.40;8.77;;;9.30;99.90;;;;;;5013002;28;20402;-32
2022/05/01 00:08:53;;;;;;;13.25;9.35;;;9.10;99.90;;;;;;5011630;28;20026;-34
2022/05/01 00:11:19;;;;;;;15.90;9.52;;;9.10;99.90;;;;;;5011471;28;20025;-33
2022/05/01 00:13:46;;;;;;;12.70;8.30;;;9.10;99.90;;;;;;5008639;28;20038;-33
2022/05/01 00:16:12;;;;;;;15.10;9.52;;;8.80;99.90;;;;;;5012044;28;20428;-33
2022/05/01 00:18:38;;;;;;;15.63;9.15;;;8.80;99.90;;;;;;5008413;28;20053;-32
2022/05/01 00:21:04;;;;;;;15.07;9.88;;;8.70;99.90;;;;;;5010452;28;20140;-33
2022/05/01 00:23:30;;;;;;;16.83;9.65;;;8.60;99.90;;;;;;5010140;28;20029;-33
2022/05/01 00:25:58;;;;;;;15.10;8.77;;;8.60;99.90;;;;;;5009084;28;21064;-32
2022/05/01 00:28:23;;;;;;;15.93;9.47;;;8.70;99.90;;;;;;5009554;28;20029;-32
2022/05/01 00:30:49;;;;;;;16.92;9.52;;;8.70;99.90;;;;;;5009291;28;21564;-32
2022/05/01 00:38:43;;;;;;;18.33;10.32;;;8.50;99.90;;;;;;5010934;28;20044;-32
2022/05/01 00:41:11;;;;;;;15.30;9.65;;;8.30;99.90;;;;;;5013053;28;20737;-32
2022/05/01 00:44:00;;;;;;;14.67;9.83;;;8.30;99.90;;;;;;5009351;28;20139;-33
2022/05/01 00:46:27;;;;;;;18.95;11.48;;;8.30;99.90;;;;;;5013387;28;20638;-33
2022/05/01 00:48:52;;;;;;;16.83;10.52;;;8.30;99.90;;;;;;5008602;28;20414;-32
2022/05/01 00:51:20;;;;;;;14.07;9.57;;;8.20;99.90;;;;;;5013552;28;20025;-32
2022/05/01 00:53:47;;;;;;;17.80;10.85;;;8.10;99.90;;;;;;5011000;28;20057;-33
2022/05/01 00:56:13;;;;;;;18.58;10.63;;;8.00;99.90;;;;;;5006829;28;20454;-32
2022/05/01 00:58:40;;;;;;;17.40;9.68;;;8.10;99.90;;;;;;5010688;28;20112;-32
2022/05/01 01:01:05;;;;;;;18.27;10.45;;;8.00;99.90;;;;;;5016858;28;20118;-33
2022/05/01 01:03:31;;;;;;;16.95;10.40;;;7.90;99.90;;;;;;5008088;28;20030;-32
2022/05/01 01:05:57;;;;;;;17.58;10.18;;;7.90;99.90;;;;;;5006152;28;20021;-32
2022/05/01 01:08:22;;;;;;;18.92;10.77;;;8.00;99.90;;;;;;5003318;28;20123;-32
2022/05/01 01:10:48;;;;;;;19.02;10.07;;;8.00;99.90;;;;;;5009634;28;20035;-32
2022/05/01 01:13:14;;;;;;;18.95;11.38;;;8.10;99.90;;;;;;5006470;28;20036;-33
2022/05/01 01:15:41;;;;;;;18.77;10.48;;;8.10;99.90;;;;;;5012818;28;20037;-33
2022/05/01 01:18:06;;;;;;;21.70;11.30;;;8.10;99.90;;;;;;5017431;28;20036;-34
2022/05/01 01:20:32;;;;;;;17.17;10.65;;;8.00;99.90;;;;;;5016918;28;20041;-32
2022/05/01 01:23:00;;;;;;;15.25;10.40;;;8.00;99.90;;;;;;5011757;28;20543;-32
2022/05/01 01:25:31;;;;;;;19.65;10.10;;;7.80;99.90;;;;;;5016085;28;20068;-33
2022/05/01 01:28:05;;;;;;;17.55;9.63;;;7.60;99.90;;;;;;5014341;28;20037;-33
2022/05/01 01:33:16;;;;;;;19.25;10.77;;;7.50;99.90;;;;;;5012876;28;20688;-32
2022/05/01 01:35:44;;;;;;;20.75;12.45;;;7.60;99.90;;;;;;5010949;28;20057;-32
2022/05/01 01:38:09;;;;;;;19.17;11.20;;;7.70;99.90;;;;;;5013830;28;20371;-33
2022/05/01 01:40:40;;;;;;;20.38;11.60;;;7.80;99.90;;;;;;5016495;28;20038;-34
2022/05/01 01:43:07;;;;;;;20.65;11.68;;;7.80;99.90;;;;;;5012009;28;20045;-33
2022/05/01 01:45:33;;;;;;;23.88;12.23;;;7.80;99.90;;;;;;5019530;28;20036;-34
2022/05/01 01:48:13;;;;;;;22.00;12.05;;;7.80;99.90;;;;;;5031513;28;20032;-32
2022/05/01 01:50:40;;;;;;;21.65;12.23;;;7.70;99.90;;;;;;5025388;28;20022;-32
2022/05/01 01:53:07;;;;;;;20.13;11.93;;;7.70;99.90;;;;;;5028279;28;20401;-34
2022/05/01 01:55:33;;;;;;;25.67;12.88;;;7.70;99.90;;;;;;5027769;28;20029;-33
2022/05/01 01:57:59;;;;;;;19.98;12.40;;;7.60;99.90;;;;;;5026262;28;20037;-32
2022/05/01 02:00:25;;;;;;;23.10;12.40;;;7.60;99.90;;;;;;5024376;28;20025;-32
2022/05/01 02:02:58;;;;;;;25.42;12.60;;;7.60;99.90;;;;;;5024621;28;20037;-33
2022/05/01 02:05:24;;;;;;;23.17;12.50;;;7.60;99.90;;;;;;5028674;28;20030;-32
2022/05/01 02:07:50;;;;;;;21.60;11.77;;;7.50;99.90;;;;;;5028115;28;20505;-32
2022/05/01 02:10:15;;;;;;;20.73;12.02;;;7.50;99.90;;;;;;5041298;28;20021;-34
2022/05/01 02:12:41;;;;;;;23.13;12.77;;;7.50;99.90;;;;;;5030253;28;20498;-34
2022/05/01 02:15:07;;;;;;;25.15;11.57;;;7.40;99.90;;;;;;5019606;28;20029;-33
2022/05/01 02:17:33;;;;;;;20.95;11.73;;;7.40;99.90;;;;;;5029720;28;21463;-34
2022/05/01 02:19:59;;;;;;;20.23;11.15;;;7.40;99.90;;;;;;5032202;28;20394;-32
2022/05/01 02:22:24;;;;;;;21.75;11.40;;;7.40;99.90;;;;;;5024942;28;20038;-32
2022/05/01 02:24:50;;;;;;;20.27;12.10;;;7.20;99.90;;;;;;5023870;28;20451;-33
2022/05/01 02:27:16;;;;;;;17.98;10.70;;;7.10;99.90;;;;;;5024629;28;20075;-33
2022/05/01 02:29:43;;;;;;;21.38;11.77;;;7.00;99.90;;;;;;5032314;28;20123;-32
2022/05/01 02:32:08;;;;;;;21.08;11.45;;;7.00;99.90;;;;;;5028736;28;20033;-33
2022/05/01 02:34:34;;;;;;;18.77;11.50;;;7.00;99.90;;;;;;5029956;28;20021;-33
2022/05/01 02:37:00;;;;;;;21.65;12.00;;;7.00;99.90;;;;;;5027877;28;20753;-32
2022/05/01 02:39:25;;;;;;;22.50;11.15;;;6.90;99.90;;;;;;5028813;28;20037;-32
2022/05/01 02:41:51;;;;;;;18.60;10.73;;;6.70;99.90;;;;;;5026776;28;20549;-34
2022/05/01 02:44:17;;;;;;;17.48;10.73;;;6.60;99.90;;;;;;5027269;28;20095;-32
2022/05/01 02:46:42;;;;;;;14.95;9.13;;;6.60;99.90;;;;;;5026402;28;20113;-32
2022/05/01 02:49:08;;;;;;;14.70;8.05;;;6.50;99.90;;;;;;5029200;28;20033;-32
2022/05/01 02:51:34;;;;;;;124.43;11.82;;;6.40;99.90;;;;;;5026488;28;20029;-33
2022/05/01 02:54:04;;;;;;;68.00;9.30;;;6.00;99.90;;;;;;5028457;28;20057;-33
2022/05/01 02:56:30;;;;;;;45.63;9.05;;;5.80;99.90;;;;;;5030273;28;20433;-33
2022/05/01 02:58:57;;;;;;;12.75;7.32;;;5.70;99.90;;;;;;5022167;28;20374;-32
2022/05/01 03:01:22;;;;;;;63.28;10.52;;;5.60;99.90;;;;;;5025051;28;20517;-32
2022/05/01 03:03:48;;;;;;;28.23;9.77;;;5.50;99.90;;;;;;5023762;28;20080;-34
2022/05/01 03:06:14;;;;;;;11.90;8.32;;;5.40;99.90;;;;;;5024513;28;20524;-32
2022/05/01 03:08:39;;;;;;;13.80;7.55;;;5.40;99.90;;;;;;5008847;28;20164;-33
2022/05/01 03:11:05;;;;;;;14.73;8.52;;;5.40;99.90;;;;;;5012399;28;20108;-33
2022/05/01 03:13:30;;;;;;;13.93;8.77;;;5.40;99.90;;;;;;5011570;28;20033;-33
2022/05/01 03:15:56;;;;;;;13.15;9.00;;;5.40;99.90;;;;;;5012413;28;20033;-33
2022/05/01 03:23:51;;;;;;;17.58;9.75;;;5.70;99.90;;;;;;5007713;28;20049;-33
2022/05/01 03:26:18;;;;;;;19.85;11.88;;;5.90;99.90;;;;;;5011169;28;20034;-33
2022/05/01 03:28:45;;;;;;;20.50;10.68;;;5.90;99.90;;;;;;5009539;28;20883;-33
2022/05/01 03:31:11;;;;;;;20.50;10.10;;;6.10;99.90;;;;;;5011440;28;20033;-34
2022/05/01 03:33:38;;;;;;;20.88;11.35;;;6.20;99.90;;;;;;5008721;28;20039;-33
2022/05/01 03:36:06;;;;;;;20.02;10.57;;;6.20;99.90;;;;;;5014446;28;20022;-33
2022/05/01 03:38:37;;;;;;;13.50;8.75;;;6.30;99.90;;;;;;5014707;28;20060;-33
2022/05/01 03:41:09;;;;;;;16.75;9.95;;;6.30;99.90;;;;;;5015408;28;20030;-33
2022/05/01 03:43:35;;;;;;;17.00;9.60;;;6.40;99.90;;;;;;5008482;28;20615;-33
2022/05/01 03:46:05;;;;;;;17.27;9.40;;;6.40;99.90;;;;;;5015782;28;20037;-33
2022/05/01 03:48:30;;;;;;;17.20;9.55;;;6.40;99.90;;;;;;5011609;28;20044;-33
2022/05/01 03:50:56;;;;;;;17.23;9.48;;;6.20;99.90;;;;;;5012458;28;20033;-32
2022/05/01 03:53:23;;;;;;;21.50;11.27;;;6.30;99.90;;;;;;5012632;28;20147;-33
2022/05/01 03:55:49;;;;;;;23.85;12.48;;;6.30;99.90;;;;;;5014139;28;20025;-33
2022/05/01 03:58:15;;;;;;;21.73;11.35;;;6.40;99.90;;;;;;5010008;28;20039;-33
2022/05/01 04:00:44;;;;;;;17.35;10.80;;;6.40;99.90;;;;;;5012410;28;20423;-33
2022/05/01 04:03:11;;;;;;;21.00;11.68;;;6.40;99.90;;;;;;5011152;28;20534;-33
2022/05/01 04:05:36;;;;;;;15.77;9.65;;;6.40;99.90;;;;;;5010806;28;20087;-33
2022/05/01 04:08:02;;;;;;;18.00;9.63;;;6.40;99.90;;;;;;5009151;28;21079;-33
2022/05/01 04:10:28;;;;;;;20.55;10.73;;;6.50;99.90;;;;;;5007165;28;20030;-32
2022/05/01 04:12:53;;;;;;;20.38;12.02;;;6.60;99.90;;;;;;5012603;28;20663;-33
2022/05/01 04:15:19;;;;;;;20.50;11.48;;;6.60;99.90;;;;;;5012056;28;20120;-32
2022/05/01 04:17:45;;;;;;;20.83;11.13;;;6.50;99.90;;;;;;5008737;28;20053;-34
2022/05/01 04:20:16;;;;;;;17.63;9.82;;;6.40;99.90;;;;;;5009118;28;20033;-33
2022/05/01 04:22:47;;;;;;;13.60;8.82;;;6.40;99.90;;;;;;5009919;28;20156;-33
2022/05/01 04:25:16;;;;;;;17.77;10.23;;;6.50;99.90;;;;;;5011740;28;20035;-33
2022/05/01 04:27:47;;;;;;;16.52;9.60;;;6.50;99.90;;;;;;5009948;28;20031;-32
2022/05/01 04:30:14;;;;;;;18.33;9.80;;;6.60;99.90;;;;;;5010799;28;20059;-33
2022/05/01 04:32:50;;;;;;;19.98;11.25;;;6.60;99.90;;;;;;5009383;28;20048;-32
2022/05/01 04:35:31;;;;;;;18.05;10.93;;;6.30;99.90;;;;;;5009597;28;20026;-32
2022/05/01 04:38:04;;;;;;;20.75;10.10;;;6.00;99.90;;;;;;5012287;28;20860;-35
2022/05/01 04:40:33;;;;;;;18.65;10.60;;;5.70;99.90;;;;;;5011926;28;20059;-32
2022/05/01 04:43:06;;;;;;;22.30;11.70;;;5.60;99.90;;;;;;5013952;28;20645;-32
2022/05/01 04:45:34;;;;;;;21.15;11.50;;;5.70;99.90;;;;;;5008956;28;20034;-33
2022/05/01 04:48:01;;;;;;;17.75;10.68;;;5.80;99.90;;;;;;5014476;28;20033;-33
2022/05/01 04:50:27;;;;;;;21.30;11.90;;;5.80;99.90;;;;;;5017122;28;20061;-33
2022/05/01 04:52:53;;;;;;;19.98;11.60;;;5.90;99.90;;;;;;5016537;28;20029;-32
2022/05/01 04:55:19;;;;;;;19.75;10.68;;;6.00;99.90;;;;;;5012205;28;20043;-33
2022/05/01 04:57:45;;;;;;;18.45;10.48;;;6.20;99.90;;;;;;5014428;28;20049;-33
2022/05/01 05:00:11;;;;;;;23.92;12.00;;;6.30;99.90;;;;;;5012963;28;20044;-35
2022/05/01 05:02:38;;;;;;;19.27;11.70;;;6.20;99.90;;;;;;5033579;28;20453;-33
2022/05/01 05:05:06;;;;;;;22.70;11.73;;;6.20;99.90;;;;;;5026512;28;20124;-33
2022/05/01 05:07:32;;;;;;;20.13;12.20;;;6.30;99.90;;;;;;5021621;28;20038;-33
2022/05/01 05:09:59;;;;;;;22.67;12.73;;;6.40;99.90;;;;;;5029182;28;20036;-33
2022/05/01 05:12:25;;;;;;;21.10;10.95;;;6.50;99.90;;;;;;5030646;28;20375;-32
2022/05/01 05:14:55;;;;;;;22.73;12.43;;;6.50;99.90;;;;;;5020421;28;20103;-31
2022/05/01 05:17:21;;;;;;;19.75;10.77;;;6.60;99.90;;;;;;5028593;28;20037;-31
2022/05/01 05:19:47;;;;;;;20.45;11.88;;;6.60;99.90;;;;;;5028239;28;20029;-31
2022/05/01 05:22:14;;;;;;;19.55;11.00;;;6.60;99.90;;;;;;5030088;28;20105;-30
2022/05/01 05:24:39;;;;;;;22.20;11.65;;;6.50;99.90;;;;;;5028933;28;20038;-31
2022/05/01 05:27:05;;;;;;;22.95;10.98;;;6.50;99.90;;;;;;5030735;28;20513;-31
2022/05/01 05:29:31;;;;;;;18.98;10.40;;;6.50;99.90;;;;;;5025991;28;20786;-31
2022/05/01 05:31:56;;;;;;;17.15;10.45;;;6.50;99.90;;;;;;5027161;28;20105;-30
2022/05/01 05:34:22;;;;;;;20.83;9.75;;;6.60;99.90;;;;;;5027974;28;20018;-34
2022/05/01 05:36:47;;;;;;;26.58;12.80;;;6.60;99.90;;;;;;5030314;28;20033;-32
2022/05/01 05:39:13;;;;;;;24.77;12.55;;;6.60;99.90;;;;;;5032633;28;20453;-33
2022/05/01 05:41:39;;;;;;;24.83;12.82;;;6.70;99.90;;;;;;5029284;28;20112;-33
2022/05/01 05:44:05;;;;;;;24.58;12.40;;;6.80;99.90;;;;;;5029837;28;20506;-34
2022/05/01 05:46:31;;;;;;;27.05;12.50;;;6.80;99.90;;;;;;5020692;28;20088;-33
2022/05/01 05:48:57;;;;;;;26.00;12.40;;;6.80;99.90;;;;;;5023122;28;20025;-34
2022/05/01 05:51:22;;;;;;;28.50;13.75;;;6.90;99.90;;;;;;5024968;28;20097;-34
2022/05/01 05:53:51;;;;;;;28.17;12.98;;;6.90;99.90;;;;;;5027536;28;20112;-34
2022/05/01 05:56:17;;;;;;;;;;;7.00;99.90;;;;;;5027221;28;20148;-36
2022/05/01 05:58:43;;;;;;;23.70;10.77;;;7.00;99.90;;;;;;5024160;28;19916;-34
2022/05/01 06:01:09;;;;;;;24.75;12.50;;;7.00;99.90;;;;;;5022654;28;20589;-34
2022/05/01 06:03:36;;;;;;;28.20;12.75;;;7.00;99.90;;;;;;5021097;28;20037;-34
2022/05/01 06:06:02;;;;;;;22.25;11.95;;;7.10;99.90;;;;;;5017603;28;20723;-33
2022/05/01 06:08:28;;;;;;;20.13;10.43;;;7.20;99.90;;;;;;5018450;28;20045;-34
2022/05/01 06:10:53;;;;;;;25.67;12.20;;;7.20;99.90;;;;;;5022689;28;20091;-33
2022/05/01 06:13:19;;;;;;;32.45;14.32;;;7.30;99.90;;;;;;5018361;28;20061;-34
2022/05/01 06:15:45;;;;;;;27.25;13.50;;;7.40;99.90;;;;;;5016167;28;20040;-33
2022/05/01 06:18:10;;;;;;;28.95;13.23;;;7.40;99.90;;;;;;5027008;28;20502;-35
2022/05/01 06:20:37;;;;;;;29.58;12.60;;;7.50;99.90;;;;;;5027866;28;20041;-35
2022/05/01 06:23:02;;;;;;;27.50;12.90;;;7.60;99.90;;;;;;5023578;28;20044;-33
2022/05/01 06:25:28;;;;;;;31.15;13.52;;;7.50;99.90;;;;;;5022256;28;20029;-36
2022/05/01 06:27:54;;;;;;;29.13;12.95;;;7.60;99.90;;;;;;5018602;28;20063;-34
2022/05/01 06:30:20;;;;;;;27.10;12.05;;;7.60;99.90;;;;;;5026487;28;20049;-36
2022/05/01 06:32:46;;;;;;;27.30;12.82;;;7.70;99.90;;;;;;5025037;28;20029;-34
2022/05/01 06:35:12;;;;;;;23.48;11.93;;;7.70;99.90;;;;;;5023379;28;21315;-34
2022/05/01 06:37:38;;;;;;;24.52;11.85;;;7.80;99.90;;;;;;5021269;28;20731;-33
2022/05/01 06:40:05;;;;;;;29.00;13.23;;;7.80;99.90;;;;;;5024565;28;20038;-34
2022/05/01 06:42:32;;;;;;;26.15;13.10;;;7.80;99.90;;;;;;5024046;28;20021;-33
2022/05/01 06:44:58;;;;;;;26.20;11.70;;;7.90;99.90;;;;;;5025202;28;20045;-33
2022/05/01 06:47:24;;;;;;;26.73;11.68;;;8.00;99.90;;;;;;5028006;28;20068;-33
2022/05/01 06:49:50;;;;;;;28.63;11.80;;;8.00;99.90;;;;;;5027292;28;20018;-33
2022/05/01 06:52:23;;;;;;;28.27;13.95;;;8.00;99.90;;;;;;5026276;28;20028;-33
2022/05/01 06:54:53;;;;;;;30.23;13.02;;;8.10;99.90;;;;;;5019055;28;20111;-34
2022/05/01 06:57:19;;;;;;;25.42;12.65;;;8.10;99.90;;;;;;5026402;28;20171;-36
2022/05/01 06:59:45;;;;;;;25.88;11.25;;;8.10;99.90;;;;;;5020610;28;20037;-33
2022/05/01 07:02:11;;;;;;;25.65;11.48;;;8.10;99.90;;;;;;5024939;28;20037;-34
2022/05/01 07:04:36;;;;;;;26.10;11.80;;;8.20;99.90;;;;;;5022237;28;20112;-33
2022/05/01 07:07:02;;;;;;;26.13;12.20;;;8.30;99.90;;;;;;5028142;28;20532;-33
2022/05/01 07:09:28;;;;;;;26.13;12.00;;;8.30;99.90;;;;;;5027048;28;20038;-34
2022/05/01 07:11:54;;;;;;;27.80;11.95;;;8.40;99.90;;;;;;5029123;28;20029;-33
2022/05/01 07:14:20;;;;;;;30.80;13.13;;;8.40;99.90;;;;;;5019202;28;20244;-33
2022/05/01 07:16:47;;;;;;;24.73;11.73;;;8.40;99.90;;;;;;5018127;28;20029;-33
2022/05/01 07:19:13;;;;;;;24.20;12.73;;;8.40;99.90;;;;;;5020006;28;20113;-33
2022/05/01 07:21:39;;;;;;;21.10;10.85;;;8.40;99.90;;;;;;5033903;28;20029;-33
2022/05/01 07:24:05;;;;;;;26.58;11.68;;;8.50;99.90;;;;;;5020040;28;20033;-35
2022/05/01 07:26:33;;;;;;;20.95;11.25;;;8.60;99.90;;;;;;5028581;28;20033;-36
2022/05/01 07:29:03;;;;;;;21.58;10.48;;;8.60;99.90;;;;;;5025210;28;20036;-37
2022/05/01 07:31:29;;;;;;;24.10;12.80;;;8.70;99.90;;;;;;5020214;28;20030;-33
2022/05/01 07:33:55;;;;;;;21.77;11.73;;;8.90;99.90;;;;;;5018231;28;20029;-33
2022/05/01 07:36:21;;;;;;;25.58;12.30;;;9.20;99.90;;;;;;5027861;28;20029;-34
2022/05/01 07:38:48;;;;;;;23.25;11.05;;;9.20;99.90;;;;;;5024846;28;20053;-35
2022/05/01 07:41:19;;;;;;;22.17;11.73;;;9.20;99.90;;;;;;5019463;28;20043;-33
2022/05/01 07:43:46;;;;;;;19.67;10.80;;;9.20;99.90;;;;;;5024579;28;20074;-34
2022/05/01 07:46:12;;;;;;;21.55;11.25;;;9.20;99.90;;;;;;5031786;28;20025;-33
2022/05/01 07:48:38;;;;;;;24.45;11.60;;;9.20;99.90;;;;;;5026370;28;20627;-33
2022/05/01 07:51:04;;;;;;;23.23;10.55;;;9.00;99.90;;;;;;5027195;28;20486;-34
2022/05/01 07:53:33;;;;;;;24.00;11.30;;;9.10;99.90;;;;;;5017732;28;20208;-37
2022/05/01 07:55:58;;;;;;;52.55;26.42;;;9.00;99.90;;;;;;5022478;28;20030;-33
2022/05/01 07:58:24;;;;;;;24.50;13.07;;;9.20;99.90;;;;;;5021008;28;20036;-33
2022/05/01 08:00:50;;;;;;;38.63;18.92;;;9.30;99.90;;;;;;5017119;28;20038;-34
2022/05/01 08:05:59;;;;;;;23.27;11.52;;;9.40;99.90;;;;;;5023639;28;20459;-35
2022/05/01 08:08:26;;;;;;;21.60;12.00;;;9.30;99.90;;;;;;5026896;28;20120;-37
2022/05/01 08:10:52;;;;;;;21.70;11.50;;;9.50;99.90;;;;;;5021983;28;20029;-34
2022/05/01 08:13:17;;;;;;;17.02;9.52;;;9.50;99.90;;;;;;5022700;28;20506;-35
2022/05/01 08:15:43;;;;;;;22.75;11.27;;;9.50;99.90;;;;;;5020683;28;20673;-34
2022/05/01 08:21:10;;;;;;;19.80;11.73;;;9.60;99.90;;;;;;5022179;28;20076;-33
2022/05/01 08:23:37;;;;;;;24.38;12.60;;;9.70;99.90;;;;;;5022818;28;20446;-36
2022/05/01 08:26:04;;;;;;;23.13;11.80;;;9.40;99.90;;;;;;5018596;28;20033;-34
2022/05/01 08:28:37;;;;;;;23.98;12.05;;;9.60;99.90;;;;;;5021236;28;20044;-34
2022/05/01 08:31:05;;;;;;;25.00;11.98;;;9.70;99.90;;;;;;5021183;28;20033;-33
2022/05/01 08:33:31;;;;;;;23.48;12.38;;;9.80;99.90;;;;;;5018429;28;20030;-33
2022/05/01 08:35:57;;;;;;;20.63;11.00;;;10.10;99.90;;;;;;5022516;28;20040;-36
2022/05/01 08:38:23;;;;;;;23.20;12.52;;;10.20;99.90;;;;;;5018792;28;20029;-37
2022/05/01 08:40:50;;;;;;;19.85;9.93;;;10.40;99.90;;;;;;5032177;28;20029;-37
2022/05/01 08:43:20;;;;;;;13.95;7.80;;;10.40;99.90;;;;;;5016851;28;20049;-33
2022/05/01 08:46:00;;;;;;;23.35;10.13;;;10.30;99.90;;;;;;5017719;28;20426;-36
2022/05/01 08:48:30;;;;;;;21.90;11.48;;;10.40;99.90;;;;;;5019288;28;20087;-34
2022/05/01 08:50:55;;;;;;;18.25;10.65;;;10.40;99.90;;;;;;5025297;28;20025;-34
2022/05/01 08:53:22;;;;;;;14.90;8.38;;;10.60;99.90;;;;;;5017371;28;20025;-35
2022/05/01 08:55:49;;;;;;;16.10;9.10;;;10.40;99.90;;;;;;5026650;28;20052;-33
2022/05/01 08:58:15;;;;;;;23.98;10.60;;;10.20;99.90;;;;;;5019784;28;20021;-33
2022/05/01 09:00:41;;;;;;;10.38;6.97;;;10.40;99.90;;;;;;5015127;28;20041;-34
2022/05/01 09:03:07;;;;;;;20.50;10.27;;;10.50;99.90;;;;;;5025187;28;20034;-33
2022/05/01 09:05:33;;;;;;;17.65;9.38;;;10.50;99.90;;;;;;5024069;28;20548;-34
2022/05/01 09:07:59;;;;;;;17.95;10.38;;;10.50;99.90;;;;;;5022836;28;20029;-34
2022/05/01 09:10:31;;;;;;;17.98;9.88;;;10.70;99.90;;;;;;5013517;28;21396;-33
2022/05/01 09:12:57;;;;;;;19.25;9.45;;;11.00;99.90;;;;;;5028515;28;20022;-33
2022/05/01 09:15:43;;;;;;;13.85;8.23;;;11.10;99.90;;;;;;5025552;28;20045;-33
2022/05/01 09:18:11;;;;;;;17.40;9.30;;;11.00;99.90;;;;;;5016263;28;20048;-33
2022/05/01 09:20:57;;;;;;;19.70;9.38;;;11.10;99.90;;;;;;5021215;28;20057;-34
2022/05/01 09:23:41;;;;;;;15.77;8.38;;;11.40;99.90;;;;;;5027338;28;20036;-34
2022/05/01 09:26:09;;;;;;;18.30;10.13;;;11.50;99.90;;;;;;5029497;28;20025;-34
2022/05/01 09:29:01;;;;;;;16.83;9.60;;;11.30;99.90;;;;;;5027035;28;20578;-36
2022/05/01 09:31:44;;;;;;;17.95;9.57;;;11.30;99.90;;;;;;5041093;28;20371;-35
2022/05/01 09:34:29;;;;;;;17.67;10.15;;;11.30;99.90;;;;;;5023142;28;20029;-33
2022/05/01 09:37:00;;;;;;;13.85;8.27;;;11.40;99.90;;;;;;5027873;28;20048;-33
2022/05/01 09:39:27;;;;;;;17.38;9.70;;;11.60;99.90;;;;;;5028830;28;20097;-34
2022/05/01 09:41:55;;;;;;;15.40;8.82;;;12.10;99.90;;;;;;5022763;28;20075;-33
2022/05/01 09:44:22;;;;;;;14.80;8.43;;;12.20;99.90;;;;;;5027235;28;20080;-32
2022/05/01 09:46:49;;;;;;;18.05;10.00;;;12.50;99.90;;;;;;5021798;28;20123;-32
2022/05/01 09:49:17;;;;;;;13.25;8.57;;;12.30;99.90;;;;;;5027483;28;20033;-33
2022/05/01 09:52:00;;;;;;;16.55;10.02;;;12.10;99.90;;;;;;5027055;28;20087;-33
2022/05/01 09:54:27;;;;;;;17.92;9.63;;;12.30;99.90;;;;;;5028348;28;20095;-32
2022/05/01 09:56:54;;;;;;;17.90;9.82;;;12.20;99.90;;;;;;5027769;28;20414;-33
2022/05/01 09:59:21;;;;;;;17.10;9.52;;;12.20;99.90;;;;;;5028977;28;20678;-34
2022/05/01 10:02:02;;;;;;;18.33;11.13;;;12.20;99.90;;;;;;5022648;28;20029;-32
2022/05/01 10:04:28;;;;;;;16.92;10.70;;;12.50;99.90;;;;;;5032398;28;20025;-33
2022/05/01 10:06:55;;;;;;;18.10;10.23;;;12.50;99.90;;;;;;5030386;28;20029;-33
2022/05/01 10:09:32;;;;;;;15.25;9.68;;;12.40;99.90;;;;;;5027910;28;20022;-33
2022/05/01 10:12:06;;;;;;;19.10;9.88;;;12.40;99.90;;;;;;5018092;28;20033;-34
2022/05/01 10:14:32;;;;;;;16.77;10.15;;;12.60;99.90;;;;;;5024592;28;20099;-32
2022/05/01 10:16:58;;;;;;;16.27;9.23;;;13.10;99.90;;;;;;5023153;28;20100;-36
2022/05/01 10:19:24;;;;;;;14.93;9.68;;;13.20;99.90;;;;;;5026122;28;20116;-32
2022/05/01 10:21:52;;;;;;;15.27;9.27;;;12.90;99.90;;;;;;5023603;28;20068;-33
2022/05/01 10:24:20;;;;;;;14.32;8.80;;;13.10;99.90;;;;;;5028008;28;20032;-33
2022/05/01 10:27:26;;;;;;;15.45;8.98;;;13.10;99.90;;;;;;5025979;28;20033;-33
2022/05/01 10:33:08;;;;;;;14.30;9.02;;;13.10;99.90;;;;;;5022342;28;20493;-34
2022/05/01 10:35:59;;;;;;;14.70;8.75;;;13.10;99.90;;;;;;5025321;28;20100;-32
2022/05/01 10:38:50;;;;;;;15.18;9.10;;;13.20;99.90;;;;;;4995682;28;20375;-33
2022/05/01 10:41:17;;;;;;;12.93;8.63;;;13.10;99.90;;;;;;5023307;28;20029;-33
2022/05/01 10:43:54;;;;;;;12.90;7.35;;;13.00;99.90;;;;;;5028455;28;20586;-32
2022/05/01 10:46:20;;;;;;;13.40;8.53;;;13.10;99.90;;;;;;5022356;28;20100;-34
2022/05/01 10:48:46;;;;;;;13.00;8.68;;;13.40;99.90;;;;;;5022815;28;20302;-32
2022/05/01 10:51:38;;;;;;;13.70;9.15;;;13.50;99.90;;;;;;5037904;28;20206;-38
2022/05/01 10:54:10;;;;;;;16.38;9.98;;;13.20;99.90;;;;;;4988957;23;20059;-76
2022/05/01 10:56:38;;;;;;;14.25;8.90;;;12.80;99.90;;;;;;4973615;28;20033;-75
2022/05/01 10:59:56;;;;;;;14.73;9.82;;;12.70;99.90;;;;;;4955507;28;20073;-76
2022/05/01 11:02:24;;;;;;;17.92;9.25;;;12.60;99.90;;;;;;4975399;28;20450;-76
2022/05/01 11:04:52;;;;;;;17.50;8.85;;;12.60;99.90;;;;;;4998175;28;20031;-76
2022/05/01 11:07:20;;;;;;;16.33;9.40;;;12.60;99.90;;;;;;4993704;28;20076;-76
2022/05/01 11:09:47;;;;;;;13.77;8.13;;;12.50;99.90;;;;;;4984944;28;20030;-75
2022/05/01 11:12:15;;;;;;;13.82;8.45;;;12.50;99.90;;;;;;4985876;28;20705;-75
2022/05/01 11:14:54;;;;;;;13.77;7.75;;;12.40;99.90;;;;;;4985952;28;20043;-76
2022/05/01 11:17:42;;;;;;;10.90;7.60;;;12.40;99.90;;;;;;4987557;28;20030;-76
2022/05/01 11:20:21;;;;;;;13.95;8.50;;;12.30;99.90;;;;;;5003356;28;20213;-76
2022/05/01 11:22:47;;;;;;;12.02;7.82;;;12.30;99.90;;;;;;4992070;28;20069;-75
2022/05/01 11:25:30;;;;;;;13.30;7.40;;;12.20;99.90;;;;;;4991379;28;20500;-76
2022/05/01 11:27:56;;;;;;;11.93;7.80;;;12.30;99.90;;;;;;4985128;28;20041;-76
2022/05/01 11:30:27;;;;;;;13.50;7.55;;;12.30;99.90;;;;;;4986438;28;20035;-75
2022/05/01 11:33:10;;;;;;;11.85;7.47;;;12.30;99.90;;;;;;5005349;28;20551;-76
2022/05/01 11:36:00;;;;;;;14.02;7.45;;;12.30;99.90;;;;;;4990066;28;20076;-75
2022/05/01 11:38:46;;;;;;;10.93;6.40;;;12.40;99.90;;;;;;4993451;28;20111;-76
2022/05/01 11:41:12;;;;;;;8.43;5.78;;;12.50;99.90;;;;;;4993491;28;20034;-76
2022/05/01 11:43:37;;;;;;;9.57;6.10;;;12.60;95.70;;;;;;4993507;28;20166;-76
2022/05/01 11:46:04;;;;;;;9.45;6.63;;;12.60;98.20;;;;;;4986376;28;20041;-76
2022/05/01 11:48:31;;;;;;;11.45;6.72;;;12.70;99.90;;;;;;5019362;28;20045;-76
2022/05/01 11:51:00;;;;;;;10.18;6.88;;;12.70;96.60;;;;;;5000569;28;20030;-76
2022/05/01 11:53:33;;;;;;;16.02;8.13;;;12.70;99.60;;;;;;4989174;28;20042;-77
2022/05/01 12:04:35;;;;;;;14.20;8.85;;;12.80;99.90;;;;;;4986577;28;20032;-76
2022/05/01 12:07:18;;;;;;;15.07;8.50;;;12.90;99.90;;;;;;4990726;28;20030;-77
2022/05/01 12:09:55;;;;;;;11.27;8.10;;;13.10;99.80;;;;;;4989114;28;20034;-76
2022/05/01 12:12:26;;;;;;;12.52;7.97;;;13.20;99.10;;;;;;4988727;28;20030;-77
2022/05/01 12:14:51;;;;;;;13.68;9.20;;;13.20;96.70;;;;;;4990260;28;20581;-77
2022/05/01 12:17:19;;;;;;;15.38;8.55;;;13.30;99.10;;;;;;4991886;28;20042;-77
2022/05/01 12:19:49;;;;;;;14.60;9.68;;;13.30;97.30;;;;;;4987661;28;20082;-76
2022/05/01 12:22:17;;;;;;;12.10;7.47;;;13.50;96.20;;;;;;4990074;28;20456;-76
2022/05/01 12:24:44;;;;;;;11.98;7.68;;;13.70;94.30;;;;;;4990221;28;20512;-77
2022/05/01 12:27:11;;;;;;;10.75;7.25;;;13.90;96.60;;;;;;4990313;28;20066;-77
2022/05/01 12:29:39;;;;;;;8.82;7.07;;;13.90;97.10;;;;;;4989740;28;20046;-75
2022/05/01 12:32:13;;;;;;;11.40;7.22;;;14.00;94.60;;;;;;4989045;28;20166;-75
2022/05/01 12:34:48;;;;;;;10.10;7.45;;;14.00;94.20;;;;;;4991365;28;20041;-75
2022/05/01 12:37:24;;;;;;;8.40;6.32;;;14.00;91.30;;;;;;4986108;28;20090;-75
2022/05/01 12:39:58;;;;;;;10.88;6.97;;;14.20;92.70;;;;;;4984263;28;20029;-75
2022/05/01 12:45:13;;;;;;;10.98;7.57;;;14.30;94.20;;;;;;4991675;28;20472;-75
2022/05/01 12:47:44;;;;;;;12.77;8.55;;;14.40;93.70;;;;;;4984355;28;20544;-74
2022/05/01 12:50:18;;;;;;;17.35;10.75;;;14.20;96.20;;;;;;4984019;28;20490;-75
2022/05/01 12:52:49;;;;;;;16.65;11.18;;;14.30;99.90;;;;;;4986423;28;20059;-75
2022/05/01 12:55:20;;;;;;;13.90;9.25;;;14.30;99.90;;;;;;4987308;28;20520;-76
2022/05/01 12:57:51;;;;;;;15.45;10.02;;;14.30;99.70;;;;;;4983789;28;20080;-75
2022/05/01 13:00:45;;;;;;;16.23;9.98;;;14.00;99.80;;;;;;4984979;28;20037;-74
2022/05/01 13:03:28;;;;;;;14.07;9.13;;;13.80;99.30;;;;;;4980201;28;20042;-76
2022/05/01 13:06:05;;;;;;;14.57;9.02;;;13.60;99.80;;;;;;5014553;28;20039;-76
2022/05/01 13:08:36;;;;;;;14.60;10.60;;;13.50;99.40;;;;;;4985257;28;20034;-76
2022/05/01 13:11:21;;;;;;;16.13;10.48;;;13.40;99.90;;;;;;4994925;28;20042;-76
2022/05/01 13:13:54;;;;;;;12.80;8.88;;;13.40;99.10;;;;;;4988955;28;20085;-76
2022/05/01 13:16:30;;;;;;;15.13;9.65;;;13.40;98.50;;;;;;5011743;28;20029;-76
2022/05/01 13:19:00;;;;;;;14.88;10.15;;;13.50;99.90;;;;;;4993063;28;20141;-76
2022/05/01 13:21:28;;;;;;;14.82;9.50;;;13.50;97.50;;;;;;4994475;28;20037;-76